PWSweather.com
Personal Weather Stations
Station Observations
GRD01
Warsaw, LesznoPL 05-084

WarsawLesznoPL 05-084

Lat: 52.257404, Lon: 20.564847

Elevation: 298

Station Type: WH3080

http://pogoda.kampinos.waw.pl

High Low Average
Temperature 59.0°F15.0°C 38.5°F3.6°C 49.4°F9.7°C
Dew Point 48.7°F9.3°C 36.6°F2.6°C 41.2°F5.1°C
Winds 7.6 mph 12.2 kmh Calm Calm 3.0 mph W4.8 kmh W
Wind Gusts 16.8 mph27.0 kmh 0.7 mph1.1 kmh 6.0 mph9.7 kmh
Humidity 100% 46% 76%
Pressure 30.73 in1040.6 mb 30.69 in1039.3 mb -
Precipitation 0.00 in0.0 mm - -
Hour Temp Dew Point Humidity Winds Wind Gusts Pressure Precip Precip Rate Daily Precip Total
12:00 AM 42.6°F5.9°C 40.5°F4.7°C 92% 3.1 mph NW5.0 kmh NW 4.5 mph7.2 kmh 30.71 in1040.0 mb 0.00 in0.0 mm 0.00 in0.0 mm 0.00 in0.0 mm
12:11 AM 42.4°F5.8°C 40.3°F4.6°C 92% 3.8 mph W6.1 kmh W 5.4 mph8.7 kmh 30.27 in1025.1 mb 0.00 in0.0 mm 0.00 in0.0 mm 0.00 in0.0 mm
12:15 AM 42.4°F5.8°C 40.3°F4.6°C 92% 2.2 mph WNW3.5 kmh WNW 5.4 mph8.7 kmh 30.71 in1040.0 mb 0.00 in0.0 mm 0.00 in0.0 mm 0.00 in0.0 mm
12:30 AM 42.3°F5.7°C 40.1°F4.5°C 92% 2.2 mph W3.5 kmh W 5.4 mph8.7 kmh 30.71 in1040.0 mb 0.00 in0.0 mm 0.00 in0.0 mm 0.00 in0.0 mm
12:41 AM 42.3°F5.7°C 40.1°F4.5°C 92% 3.8 mph W6.1 kmh W 5.4 mph8.7 kmh 30.26 in1024.7 mb 0.00 in0.0 mm 0.00 in0.0 mm 0.00 in0.0 mm
12:45 AM 42.3°F5.7°C 40.1°F4.5°C 92% 3.1 mph W5.0 kmh W 5.4 mph8.7 kmh 30.71 in1040.0 mb 0.00 in0.0 mm 0.00 in0.0 mm 0.00 in0.0 mm
01:00 AM 42.1°F5.6°C 40.2°F4.6°C 93% 1.6 mph NW2.6 kmh NW 4.5 mph7.2 kmh 30.70 in1039.6 mb 0.00 in0.0 mm 0.00 in0.0 mm 0.00 in0.0 mm
01:11 AM 41.9°F5.5°C 40.0°F4.4°C 93% 2.2 mph W3.5 kmh W 4.5 mph7.2 kmh 30.26 in1024.7 mb 0.00 in0.0 mm 0.00 in0.0 mm 0.00 in0.0 mm
01:15 AM 41.7°F5.4°C 39.8°F4.3°C 93% 2.2 mph WNW3.5 kmh WNW 5.4 mph8.7 kmh 30.71 in1040.0 mb 0.00 in0.0 mm 0.00 in0.0 mm 0.00 in0.0 mm
01:30 AM 41.7°F5.4°C 39.8°F4.3°C 93% 1.6 mph WNW2.6 kmh WNW 6.0 mph9.7 kmh 30.70 in1039.6 mb 0.00 in0.0 mm 0.00 in0.0 mm 0.00 in0.0 mm
01:41 AM 41.7°F5.4°C 39.8°F4.3°C 93% 3.8 mph NW6.1 kmh NW 4.5 mph7.2 kmh 30.27 in1025.1 mb 0.00 in0.0 mm 0.00 in0.0 mm 0.00 in0.0 mm
01:45 AM 41.5°F5.3°C 39.7°F4.3°C 93% 3.8 mph W6.1 kmh W 6.0 mph9.7 kmh 30.70 in1039.6 mb 0.00 in0.0 mm 0.00 in0.0 mm 0.00 in0.0 mm
02:00 AM 41.5°F5.3°C 39.7°F4.3°C 93% 3.8 mph W6.1 kmh W 5.4 mph8.7 kmh 30.71 in1040.0 mb 0.00 in0.0 mm 0.00 in0.0 mm 0.00 in0.0 mm
02:11 AM 41.5°F5.3°C 39.7°F4.3°C 93% 2.2 mph W3.5 kmh W 3.1 mph5.0 kmh 30.26 in1024.7 mb 0.00 in0.0 mm 0.00 in0.0 mm 0.00 in0.0 mm
02:15 AM 41.4°F5.2°C 39.5°F4.2°C 93% 5.4 mph W8.7 kmh W 6.0 mph9.7 kmh 30.71 in1040.0 mb 0.00 in0.0 mm 0.00 in0.0 mm 0.00 in0.0 mm
02:30 AM 41.2°F5.1°C 39.3°F4.1°C 93% 2.2 mph W3.5 kmh W 4.5 mph7.2 kmh 30.71 in1040.0 mb 0.00 in0.0 mm 0.00 in0.0 mm 0.00 in0.0 mm
02:41 AM 41.2°F5.1°C 39.3°F4.1°C 93% 2.2 mph W3.5 kmh W 3.1 mph5.0 kmh 30.26 in1024.7 mb 0.00 in0.0 mm 0.00 in0.0 mm 0.00 in0.0 mm
02:45 AM 41.0°F5.0°C 39.1°F3.9°C 93% 3.8 mph W6.1 kmh W 4.5 mph7.2 kmh 30.71 in1040.0 mb 0.00 in0.0 mm 0.00 in0.0 mm 0.00 in0.0 mm
03:00 AM 41.2°F5.1°C 39.6°F4.2°C 94% 2.2 mph WSW3.5 kmh WSW 4.5 mph7.2 kmh 30.70 in1039.6 mb 0.00 in0.0 mm 0.00 in0.0 mm 0.00 in0.0 mm
03:11 AM 41.2°F5.1°C 39.6°F4.2°C 94% 1.6 mph W2.6 kmh W 2.2 mph3.5 kmh 30.26 in1024.7 mb 0.00 in0.0 mm 0.00 in0.0 mm 0.00 in0.0 mm
03:15 AM 41.2°F5.1°C 39.6°F4.2°C 94% 2.2 mph W3.5 kmh W 3.1 mph5.0 kmh 30.69 in1039.3 mb 0.00 in0.0 mm 0.00 in0.0 mm 0.00 in0.0 mm
03:30 AM 41.0°F5.0°C 39.4°F4.1°C 94% 1.6 mph WNW2.6 kmh WNW 4.5 mph7.2 kmh 30.70 in1039.6 mb 0.00 in0.0 mm 0.00 in0.0 mm 0.00 in0.0 mm
03:41 AM 41.0°F5.0°C 39.4°F4.1°C 94% 1.6 mph W2.6 kmh W 2.2 mph3.5 kmh 30.26 in1024.7 mb 0.00 in0.0 mm 0.00 in0.0 mm 0.00 in0.0 mm
03:45 AM 40.8°F4.9°C 39.2°F4.0°C 94% 1.6 mph W2.6 kmh W 3.8 mph6.1 kmh 30.70 in1039.6 mb 0.00 in0.0 mm 0.00 in0.0 mm 0.00 in0.0 mm
04:00 AM 40.6°F4.8°C 39.0°F3.9°C 94% 2.2 mph W3.5 kmh W 3.1 mph5.0 kmh 30.70 in1039.6 mb 0.00 in0.0 mm 0.00 in0.0 mm 0.00 in0.0 mm
04:11 AM 40.6°F4.8°C 39.0°F3.9°C 94% 1.6 mph W2.6 kmh W 2.2 mph3.5 kmh 30.26 in1024.7 mb 0.00 in0.0 mm 0.00 in0.0 mm 0.00 in0.0 mm
04:15 AM 40.3°F4.6°C 38.7°F3.7°C 94% Calm Calm 2.2 mph3.5 kmh 30.70 in1039.6 mb 0.00 in0.0 mm 0.00 in0.0 mm 0.00 in0.0 mm
04:30 AM 39.9°F4.4°C 38.3°F3.5°C 94% Calm Calm 1.6 mph2.6 kmh 30.70 in1039.6 mb 0.00 in0.0 mm 0.00 in0.0 mm 0.00 in0.0 mm
04:41 AM 39.9°F4.4°C 38.3°F3.5°C 94% 0.7 mph W1.1 kmh W 1.6 mph2.6 kmh 30.26 in1024.7 mb 0.00 in0.0 mm 0.00 in0.0 mm 0.00 in0.0 mm
04:45 AM 39.7°F4.3°C 38.2°F3.4°C 94% 4.5 mph NNE7.2 kmh NNE 9.2 mph14.8 kmh 30.70 in1039.6 mb 0.00 in0.0 mm 0.00 in0.0 mm 0.00 in0.0 mm
05:00 AM 39.4°F4.1°C 37.8°F3.2°C 94% 0.7 mph N1.1 kmh N 2.2 mph3.5 kmh 30.69 in1039.3 mb 0.00 in0.0 mm 0.00 in0.0 mm 0.00 in0.0 mm
05:11 AM 39.4°F4.1°C 37.8°F3.2°C 94% 0.7 mph N1.1 kmh N 1.6 mph2.6 kmh 30.25 in1024.4 mb 0.00 in0.0 mm 0.00 in0.0 mm 0.00 in0.0 mm
05:15 AM 39.0°F3.9°C 37.2°F2.9°C 93% Calm Calm 2.2 mph3.5 kmh 30.70 in1039.6 mb 0.00 in0.0 mm 0.00 in0.0 mm 0.00 in0.0 mm
05:30 AM 38.5°F3.6°C 36.6°F2.6°C 93% 0.7 mph E1.1 kmh E 2.2 mph3.5 kmh 30.69 in1039.3 mb 0.00 in0.0 mm 0.00 in0.0 mm 0.00 in0.0 mm
05:41 AM 38.5°F3.6°C 36.6°F2.6°C 93% Calm Calm -- 30.25 in1024.4 mb 0.00 in0.0 mm 0.00 in0.0 mm 0.00 in0.0 mm
05:45 AM 38.5°F3.6°C 36.6°F2.6°C 93% Calm Calm 3.1 mph5.0 kmh 30.70 in1039.6 mb 0.00 in0.0 mm 0.00 in0.0 mm 0.00 in0.0 mm
06:00 AM 38.7°F3.7°C 36.8°F2.7°C 93% Calm Calm 1.6 mph2.6 kmh 30.70 in1039.6 mb 0.00 in0.0 mm 0.00 in0.0 mm 0.00 in0.0 mm
06:11 AM 38.7°F3.7°C 36.8°F2.7°C 93% Calm Calm 0.7 mph1.1 kmh 30.25 in1024.4 mb 0.00 in0.0 mm 0.00 in0.0 mm 0.00 in0.0 mm
06:15 AM 38.8°F3.8°C 37.3°F2.9°C 94% 0.7 mph E1.1 kmh E 1.6 mph2.6 kmh 30.69 in1039.3 mb 0.00 in0.0 mm 0.00 in0.0 mm 0.00 in0.0 mm
06:30 AM 40.1°F4.5°C 38.5°F3.6°C 94% 3.1 mph S5.0 kmh S 4.5 mph7.2 kmh 30.70 in1039.6 mb 0.00 in0.0 mm 0.00 in0.0 mm 0.00 in0.0 mm
06:41 AM 40.3°F4.6°C 39.0°F3.9°C 95% 2.2 mph S3.5 kmh S 3.1 mph5.0 kmh 30.26 in1024.7 mb 0.00 in0.0 mm 0.00 in0.0 mm 0.00 in0.0 mm
06:45 AM 41.0°F5.0°C 39.7°F4.3°C 95% 2.2 mph SW3.5 kmh SW 3.8 mph6.1 kmh 30.70 in1039.6 mb 0.00 in0.0 mm 0.00 in0.0 mm 0.00 in0.0 mm
07:00 AM 41.4°F5.2°C 40.0°F4.4°C 95% 4.5 mph W7.2 kmh W 6.0 mph9.7 kmh 30.71 in1040.0 mb 0.00 in0.0 mm 0.00 in0.0 mm 0.00 in0.0 mm
07:11 AM 41.7°F5.4°C 40.7°F4.8°C 96% 3.8 mph W6.1 kmh W 5.4 mph8.7 kmh 30.27 in1025.1 mb 0.00 in0.0 mm 0.00 in0.0 mm 0.00 in0.0 mm
07:15 AM 42.4°F5.8°C 41.4°F5.2°C 96% 5.4 mph WSW8.7 kmh WSW 6.9 mph11.1 kmh 30.71 in1040.0 mb 0.00 in0.0 mm 0.00 in0.0 mm 0.00 in0.0 mm
07:30 AM 43.7°F6.5°C 42.9°F6.1°C 97% 5.4 mph NW8.7 kmh NW 7.6 mph12.2 kmh 30.72 in1040.3 mb 0.00 in0.0 mm 0.00 in0.0 mm 0.00 in0.0 mm
07:41 AM 43.9°F6.6°C 43.1°F6.2°C 97% 5.4 mph NW8.7 kmh NW 6.9 mph11.1 kmh 30.27 in1025.1 mb 0.00 in0.0 mm 0.00 in0.0 mm 0.00 in0.0 mm
07:45 AM 44.4°F6.9°C 44.4°F6.9°C 100% 3.8 mph W6.1 kmh W 9.2 mph14.8 kmh 30.72 in1040.3 mb 0.00 in0.0 mm 0.00 in0.0 mm 0.00 in0.0 mm
08:00 AM 45.1°F7.3°C 45.1°F7.3°C 100% 3.8 mph NW6.1 kmh NW 8.3 mph13.4 kmh 30.73 in1040.6 mb 0.00 in0.0 mm 0.00 in0.0 mm 0.00 in0.0 mm
08:11 AM 45.1°F7.3°C 45.1°F7.3°C 100% 3.1 mph W5.0 kmh W 3.8 mph6.1 kmh 30.29 in1025.7 mb 0.00 in0.0 mm 0.00 in0.0 mm 0.00 in0.0 mm
08:15 AM 45.9°F7.7°C 44.0°F6.7°C 93% 4.5 mph W7.2 kmh W 6.9 mph11.1 kmh 30.73 in1040.6 mb 0.00 in0.0 mm 0.00 in0.0 mm 0.00 in0.0 mm
08:30 AM 47.1°F8.4°C 45.2°F7.3°C 93% 5.4 mph SW8.7 kmh SW 7.6 mph12.2 kmh 30.72 in1040.3 mb 0.00 in0.0 mm 0.00 in0.0 mm 0.00 in0.0 mm
08:41 AM 47.1°F8.4°C 45.2°F7.3°C 93% 5.4 mph S8.7 kmh S 7.6 mph12.2 kmh 30.28 in1025.4 mb 0.00 in0.0 mm 0.00 in0.0 mm 0.00 in0.0 mm
08:45 AM 47.8°F8.8°C 45.9°F7.7°C 93% 0.7 mph WSW1.1 kmh WSW 6.9 mph11.1 kmh 30.72 in1040.3 mb 0.00 in0.0 mm 0.00 in0.0 mm 0.00 in0.0 mm
09:00 AM 48.9°F9.4°C 46.7°F8.2°C 92% 4.5 mph SW7.2 kmh SW 8.3 mph13.4 kmh 30.72 in1040.3 mb 0.00 in0.0 mm 0.00 in0.0 mm 0.00 in0.0 mm
09:11 AM 49.1°F9.5°C 46.9°F8.3°C 92% 6.0 mph SW9.7 kmh SW 6.9 mph11.1 kmh 30.28 in1025.4 mb 0.00 in0.0 mm 0.00 in0.0 mm 0.00 in0.0 mm
09:15 AM 50.2°F10.1°C 47.7°F8.7°C 91% Calm Calm 7.6 mph12.2 kmh 30.73 in1040.6 mb 0.00 in0.0 mm 0.00 in0.0 mm 0.00 in0.0 mm
09:30 AM 51.8°F11.0°C 48.7°F9.3°C 89% 2.2 mph SW3.5 kmh SW 6.9 mph11.1 kmh 30.73 in1040.6 mb 0.00 in0.0 mm 0.00 in0.0 mm 0.00 in0.0 mm
09:41 AM 52.2°F11.2°C 49.0°F9.4°C 89% 4.5 mph NW7.2 kmh NW 6.9 mph11.1 kmh 30.28 in1025.4 mb 0.00 in0.0 mm 0.00 in0.0 mm 0.00 in0.0 mm
09:45 AM 53.1°F11.7°C 48.4°F9.1°C 84% 2.2 mph WSW3.5 kmh WSW 7.6 mph12.2 kmh 30.73 in1040.6 mb 0.00 in0.0 mm 0.00 in0.0 mm 0.00 in0.0 mm
10:00 AM 53.6°F12.0°C 47.2°F8.4°C 79% 2.2 mph WNW3.5 kmh WNW 8.3 mph13.4 kmh 30.72 in1040.3 mb 0.00 in0.0 mm 0.00 in0.0 mm 0.00 in0.0 mm
10:11 AM 53.8°F12.1°C 47.1°F8.4°C 78% 3.8 mph S6.1 kmh S 7.6 mph12.2 kmh 30.28 in1025.4 mb 0.00 in0.0 mm 0.00 in0.0 mm 0.00 in0.0 mm
10:15 AM 54.5°F12.5°C 46.0°F7.8°C 73% 4.5 mph WNW7.2 kmh WNW 6.9 mph11.1 kmh 30.73 in1040.6 mb 0.00 in0.0 mm 0.00 in0.0 mm 0.00 in0.0 mm
10:30 AM 55.0°F12.8°C 45.8°F7.7°C 71% 5.4 mph W8.7 kmh W 9.8 mph15.8 kmh 30.73 in1040.6 mb 0.00 in0.0 mm 0.00 in0.0 mm 0.00 in0.0 mm
10:41 AM 55.0°F12.8°C 45.4°F7.4°C 70% 3.8 mph NW6.1 kmh NW 4.5 mph7.2 kmh 30.28 in1025.4 mb 0.00 in0.0 mm 0.00 in0.0 mm 0.00 in0.0 mm
10:45 AM 55.6°F13.1°C 45.2°F7.3°C 68% 7.6 mph W12.2 kmh W 9.8 mph15.8 kmh 30.72 in1040.3 mb 0.00 in0.0 mm 0.00 in0.0 mm 0.00 in0.0 mm
11:00 AM 55.6°F13.1°C 43.6°F6.4°C 64% 4.5 mph NW7.2 kmh NW 13.0 mph20.9 kmh 30.72 in1040.3 mb 0.00 in0.0 mm 0.00 in0.0 mm 0.00 in0.0 mm
11:11 AM 55.8°F13.2°C 43.8°F6.6°C 64% 7.6 mph N12.2 kmh N 10.7 mph17.2 kmh 30.28 in1025.4 mb 0.00 in0.0 mm 0.00 in0.0 mm 0.00 in0.0 mm
11:15 AM 55.9°F13.3°C 43.9°F6.6°C 64% 6.9 mph WNW11.1 kmh WNW 10.7 mph17.2 kmh 30.72 in1040.3 mb 0.00 in0.0 mm 0.00 in0.0 mm 0.00 in0.0 mm
11:30 AM 56.5°F13.6°C 43.6°F6.4°C 62% 3.8 mph W6.1 kmh W 10.7 mph17.2 kmh 30.72 in1040.3 mb 0.00 in0.0 mm 0.00 in0.0 mm 0.00 in0.0 mm
11:41 AM 56.7°F13.7°C 43.4°F6.3°C 61% 8.3 mph NW13.4 kmh NW 10.7 mph17.2 kmh 30.28 in1025.4 mb 0.00 in0.0 mm 0.00 in0.0 mm 0.00 in0.0 mm
11:45 AM 56.1°F13.4°C 42.4°F5.8°C 60% 6.0 mph NW9.7 kmh NW 13.0 mph20.9 kmh 30.72 in1040.3 mb 0.00 in0.0 mm 0.00 in0.0 mm 0.00 in0.0 mm
12:00 PM 55.4°F13.0°C 41.7°F5.4°C 60% 7.6 mph NW12.2 kmh NW 12.1 mph19.5 kmh 30.73 in1040.6 mb 0.00 in0.0 mm 0.00 in0.0 mm 0.00 in0.0 mm
12:11 PM 55.2°F12.9°C 41.6°F5.3°C 60% 9.2 mph NW14.8 kmh NW 10.7 mph17.2 kmh 30.28 in1025.4 mb 0.00 in0.0 mm 0.00 in0.0 mm 0.00 in0.0 mm
12:15 PM 55.0°F12.8°C 41.8°F5.4°C 61% 6.0 mph NW9.7 kmh NW 9.2 mph14.8 kmh 30.72 in1040.3 mb 0.00 in0.0 mm 0.00 in0.0 mm 0.00 in0.0 mm
12:30 PM 55.4°F13.0°C 42.2°F5.7°C 61% 3.1 mph NW5.0 kmh NW 9.8 mph15.8 kmh 30.72 in1040.3 mb 0.00 in0.0 mm 0.00 in0.0 mm 0.00 in0.0 mm
12:41 PM 55.4°F13.0°C 42.2°F5.7°C 61% 3.8 mph W6.1 kmh W 5.4 mph8.7 kmh 30.27 in1025.1 mb 0.00 in0.0 mm 0.00 in0.0 mm 0.00 in0.0 mm
12:45 PM 55.6°F13.1°C 42.3°F5.7°C 61% 5.4 mph NW8.7 kmh NW 9.8 mph15.8 kmh 30.72 in1040.3 mb 0.00 in0.0 mm 0.00 in0.0 mm 0.00 in0.0 mm
01:00 PM 55.9°F13.3°C 42.7°F5.9°C 61% 6.9 mph N11.1 kmh N 9.2 mph14.8 kmh 30.71 in1040.0 mb 0.00 in0.0 mm 0.00 in0.0 mm 0.00 in0.0 mm
01:11 PM 55.9°F13.3°C 42.7°F5.9°C 61% 6.9 mph N11.1 kmh N 9.2 mph14.8 kmh 30.27 in1025.1 mb 0.00 in0.0 mm 0.00 in0.0 mm 0.00 in0.0 mm
01:15 PM 54.9°F12.7°C 41.7°F5.4°C 61% 6.0 mph NW9.7 kmh NW 7.6 mph12.2 kmh 30.71 in1040.0 mb 0.00 in0.0 mm 0.00 in0.0 mm 0.00 in0.0 mm
01:30 PM 55.8°F13.2°C 42.1°F5.6°C 60% 6.0 mph NW9.7 kmh NW 13.0 mph20.9 kmh 30.71 in1040.0 mb 0.00 in0.0 mm 0.00 in0.0 mm 0.00 in0.0 mm
01:41 PM 56.1°F13.4°C 42.4°F5.8°C 60% 7.6 mph NW12.2 kmh NW 9.8 mph15.8 kmh 30.27 in1025.1 mb 0.00 in0.0 mm 0.00 in0.0 mm 0.00 in0.0 mm
01:45 PM 56.5°F13.6°C 39.5°F4.2°C 53% 6.0 mph NW9.7 kmh NW 14.5 mph23.3 kmh 30.71 in1040.0 mb 0.00 in0.0 mm 0.00 in0.0 mm 0.00 in0.0 mm
02:00 PM 56.7°F13.7°C 39.7°F4.3°C 53% 6.9 mph NW11.1 kmh NW 14.5 mph23.3 kmh 30.71 in1040.0 mb 0.00 in0.0 mm 0.00 in0.0 mm 0.00 in0.0 mm
02:11 PM 56.7°F13.7°C 39.7°F4.3°C 53% 8.3 mph NW13.4 kmh NW 9.8 mph15.8 kmh 30.27 in1025.1 mb 0.00 in0.0 mm 0.00 in0.0 mm 0.00 in0.0 mm
02:15 PM 57.4°F14.1°C 39.4°F4.1°C 51% 6.9 mph NNW11.1 kmh NNW 16.8 mph27.0 kmh 30.71 in1040.0 mb 0.00 in0.0 mm 0.00 in0.0 mm 0.00 in0.0 mm
02:30 PM 58.5°F14.7°C 39.9°F4.4°C 50% 7.6 mph NW12.2 kmh NW 12.1 mph19.5 kmh 30.71 in1040.0 mb 0.00 in0.0 mm 0.00 in0.0 mm 0.00 in0.0 mm
02:41 PM 58.5°F14.7°C 39.9°F4.4°C 50% 6.0 mph W9.7 kmh W 8.3 mph13.4 kmh 30.27 in1025.1 mb 0.00 in0.0 mm 0.00 in0.0 mm 0.00 in0.0 mm
02:45 PM 59.0°F15.0°C 40.4°F4.7°C 50% 6.0 mph W9.7 kmh W 10.7 mph17.2 kmh 30.71 in1040.0 mb 0.00 in0.0 mm 0.00 in0.0 mm 0.00 in0.0 mm
03:00 PM 58.8°F14.9°C 39.2°F4.0°C 48% 4.5 mph NW7.2 kmh NW 11.4 mph18.3 kmh 30.71 in1040.0 mb 0.00 in0.0 mm 0.00 in0.0 mm 0.00 in0.0 mm
03:11 PM 58.8°F14.9°C 39.2°F4.0°C 48% 4.5 mph W7.2 kmh W 6.0 mph9.7 kmh 30.26 in1024.7 mb 0.00 in0.0 mm 0.00 in0.0 mm 0.00 in0.0 mm
03:15 PM 58.8°F14.9°C 38.6°F3.7°C 47% 6.0 mph W9.7 kmh W 9.8 mph15.8 kmh 30.70 in1039.6 mb 0.00 in0.0 mm 0.00 in0.0 mm 0.00 in0.0 mm
03:30 PM 57.6°F14.2°C 36.9°F2.7°C 46% 6.0 mph NW9.7 kmh NW 15.9 mph25.6 kmh 30.70 in1039.6 mb 0.00 in0.0 mm 0.00 in0.0 mm 0.00 in0.0 mm
03:41 PM 57.6°F14.2°C 37.5°F3.1°C 47% 6.0 mph N9.7 kmh N 8.3 mph13.4 kmh 30.25 in1024.4 mb 0.00 in0.0 mm 0.00 in0.0 mm 0.00 in0.0 mm
03:45 PM 56.8°F13.8°C 38.4°F3.6°C 50% 3.8 mph NW6.1 kmh NW 6.9 mph11.1 kmh 30.70 in1039.6 mb 0.00 in0.0 mm 0.00 in0.0 mm 0.00 in0.0 mm
04:00 PM 56.7°F13.7°C 38.7°F3.7°C 51% 5.4 mph WNW8.7 kmh WNW 7.6 mph12.2 kmh 30.69 in1039.3 mb 0.00 in0.0 mm 0.00 in0.0 mm 0.00 in0.0 mm
04:11 PM 56.7°F13.7°C 38.7°F3.7°C 51% 6.0 mph NW9.7 kmh NW 7.6 mph12.2 kmh 30.26 in1024.7 mb 0.00 in0.0 mm 0.00 in0.0 mm 0.00 in0.0 mm
04:15 PM 56.3°F13.5°C 37.9°F3.3°C 50% 3.1 mph NW5.0 kmh NW 6.9 mph11.1 kmh 30.70 in1039.6 mb 0.00 in0.0 mm 0.00 in0.0 mm 0.00 in0.0 mm
04:30 PM 55.9°F13.3°C 37.6°F3.1°C 50% 3.1 mph NW5.0 kmh NW 7.6 mph12.2 kmh 30.70 in1039.6 mb 0.00 in0.0 mm 0.00 in0.0 mm 0.00 in0.0 mm
04:41 PM 55.9°F13.3°C 37.6°F3.1°C 50% 1.6 mph NW2.6 kmh NW 3.1 mph5.0 kmh 30.25 in1024.4 mb 0.00 in0.0 mm 0.00 in0.0 mm 0.00 in0.0 mm
04:45 PM 55.6°F13.1°C 37.7°F3.2°C 51% 2.2 mph WNW3.5 kmh WNW 4.5 mph7.2 kmh 30.70 in1039.6 mb 0.00 in0.0 mm 0.00 in0.0 mm 0.00 in0.0 mm
05:00 PM 55.0°F12.8°C 37.7°F3.2°C 52% 1.6 mph W2.6 kmh W 5.4 mph8.7 kmh 30.70 in1039.6 mb 0.00 in0.0 mm 0.00 in0.0 mm 0.00 in0.0 mm
05:11 PM 54.9°F12.7°C 37.6°F3.1°C 52% 2.2 mph W3.5 kmh W 3.1 mph5.0 kmh 30.25 in1024.4 mb 0.00 in0.0 mm 0.00 in0.0 mm 0.00 in0.0 mm
05:15 PM 54.1°F12.3°C 39.7°F4.3°C 58% 1.6 mph W2.6 kmh W 3.8 mph6.1 kmh 30.70 in1039.6 mb 0.00 in0.0 mm 0.00 in0.0 mm 0.00 in0.0 mm
05:30 PM 53.6°F12.0°C 40.0°F4.4°C 60% 0.7 mph W1.1 kmh W 3.1 mph5.0 kmh 30.70 in1039.6 mb 0.00 in0.0 mm 0.00 in0.0 mm 0.00 in0.0 mm
05:41 PM 53.4°F11.9°C 39.9°F4.4°C 60% 0.7 mph W1.1 kmh W 1.6 mph2.6 kmh 30.25 in1024.4 mb 0.00 in0.0 mm 0.00 in0.0 mm 0.00 in0.0 mm
05:45 PM 53.1°F11.7°C 40.0°F4.4°C 61% 1.6 mph W2.6 kmh W 3.8 mph6.1 kmh 30.70 in1039.6 mb 0.00 in0.0 mm 0.00 in0.0 mm 0.00 in0.0 mm
06:00 PM 52.7°F11.5°C 41.3°F5.2°C 65% Calm Calm 5.4 mph8.7 kmh 30.70 in1039.6 mb 0.00 in0.0 mm 0.00 in0.0 mm 0.00 in0.0 mm
06:11 PM 52.7°F11.5°C 41.3°F5.2°C 65% Calm Calm 0.7 mph1.1 kmh 30.26 in1024.7 mb 0.00 in0.0 mm 0.00 in0.0 mm 0.00 in0.0 mm
06:15 PM 52.3°F11.3°C 41.3°F5.2°C 66% Calm Calm 0.7 mph1.1 kmh 30.71 in1040.0 mb 0.00 in0.0 mm 0.00 in0.0 mm 0.00 in0.0 mm
06:30 PM 52.2°F11.2°C 42.3°F5.7°C 69% Calm Calm 1.6 mph2.6 kmh 30.71 in1040.0 mb 0.00 in0.0 mm 0.00 in0.0 mm 0.00 in0.0 mm
06:41 PM 52.0°F11.1°C 42.1°F5.6°C 69% 0.7 mph W1.1 kmh W 1.6 mph2.6 kmh 30.26 in1024.7 mb 0.00 in0.0 mm 0.00 in0.0 mm 0.00 in0.0 mm
06:45 PM 52.0°F11.1°C 41.7°F5.4°C 68% 3.8 mph W6.1 kmh W 4.5 mph7.2 kmh 30.70 in1039.6 mb 0.00 in0.0 mm 0.00 in0.0 mm 0.00 in0.0 mm
07:00 PM 52.2°F11.2°C 40.7°F4.8°C 65% 3.8 mph NW6.1 kmh NW 4.5 mph7.2 kmh 30.71 in1040.0 mb 0.00 in0.0 mm 0.00 in0.0 mm 0.00 in0.0 mm
07:11 PM 52.2°F11.2°C 40.7°F4.8°C 65% 3.8 mph NW6.1 kmh NW 4.5 mph7.2 kmh 30.27 in1025.1 mb 0.00 in0.0 mm 0.00 in0.0 mm 0.00 in0.0 mm
07:15 PM 52.3°F11.3°C 40.5°F4.7°C 64% 1.6 mph W2.6 kmh W 3.1 mph5.0 kmh 30.70 in1039.6 mb 0.00 in0.0 mm 0.00 in0.0 mm 0.00 in0.0 mm
07:30 PM 52.2°F11.2°C 40.3°F4.6°C 64% 1.6 mph W2.6 kmh W 3.1 mph5.0 kmh 30.71 in1040.0 mb 0.00 in0.0 mm 0.00 in0.0 mm 0.00 in0.0 mm
07:41 PM 52.2°F11.2°C 40.7°F4.8°C 65% 0.7 mph W1.1 kmh W 1.6 mph2.6 kmh 30.26 in1024.7 mb 0.00 in0.0 mm 0.00 in0.0 mm 0.00 in0.0 mm
07:45 PM 52.0°F11.1°C 41.0°F5.0°C 66% Calm Calm 2.2 mph3.5 kmh 30.71 in1040.0 mb 0.00 in0.0 mm 0.00 in0.0 mm 0.00 in0.0 mm
08:00 PM 52.0°F11.1°C 41.7°F5.4°C 68% 0.7 mph WSW1.1 kmh WSW 2.2 mph3.5 kmh 30.71 in1040.0 mb 0.00 in0.0 mm 0.00 in0.0 mm 0.00 in0.0 mm
08:11 PM 52.0°F11.1°C 41.7°F5.4°C 68% 2.2 mph W3.5 kmh W 3.1 mph5.0 kmh 30.27 in1025.1 mb 0.00 in0.0 mm 0.00 in0.0 mm 0.00 in0.0 mm
08:15 PM 52.0°F11.1°C 42.1°F5.6°C 69% 2.2 mph WSW3.5 kmh WSW 4.5 mph7.2 kmh 30.71 in1040.0 mb 0.00 in0.0 mm 0.00 in0.0 mm 0.00 in0.0 mm
08:30 PM 52.2°F11.2°C 41.9°F5.5°C 68% 0.7 mph WSW1.1 kmh WSW 6.0 mph9.7 kmh 30.71 in1040.0 mb 0.00 in0.0 mm 0.00 in0.0 mm 0.00 in0.0 mm
08:41 PM 52.2°F11.2°C 41.9°F5.5°C 68% 0.7 mph W1.1 kmh W 1.6 mph2.6 kmh 30.27 in1025.1 mb 0.00 in0.0 mm 0.00 in0.0 mm 0.00 in0.0 mm
08:45 PM 52.2°F11.2°C 42.7°F5.9°C 70% 1.6 mph W2.6 kmh W 2.2 mph3.5 kmh 30.71 in1040.0 mb 0.00 in0.0 mm 0.00 in0.0 mm 0.00 in0.0 mm
09:00 PM 52.2°F11.2°C 42.7°F5.9°C 70% 0.7 mph WSW1.1 kmh WSW 1.6 mph2.6 kmh 30.71 in1040.0 mb 0.00 in0.0 mm 0.00 in0.0 mm 0.00 in0.0 mm
09:11 PM 52.2°F11.2°C 42.7°F5.9°C 70% Calm Calm 0.7 mph1.1 kmh 30.27 in1025.1 mb 0.00 in0.0 mm 0.00 in0.0 mm 0.00 in0.0 mm
09:15 PM 52.0°F11.1°C 42.9°F6.1°C 71% Calm Calm 1.6 mph2.6 kmh 30.71 in1040.0 mb 0.00 in0.0 mm 0.00 in0.0 mm 0.00 in0.0 mm
09:30 PM 51.8°F11.0°C 42.7°F5.9°C 71% Calm Calm 1.6 mph2.6 kmh 30.71 in1040.0 mb 0.00 in0.0 mm 0.00 in0.0 mm 0.00 in0.0 mm
09:41 PM 51.8°F11.0°C 42.7°F5.9°C 71% Calm Calm 0.7 mph1.1 kmh 30.26 in1024.7 mb 0.00 in0.0 mm 0.00 in0.0 mm 0.00 in0.0 mm
09:45 PM 51.8°F11.0°C 43.1°F6.2°C 72% 0.7 mph SW1.1 kmh SW 2.2 mph3.5 kmh 30.71 in1040.0 mb 0.00 in0.0 mm 0.00 in0.0 mm 0.00 in0.0 mm
10:00 PM 52.0°F11.1°C 43.2°F6.2°C 72% 0.7 mph SW1.1 kmh SW 2.2 mph3.5 kmh 30.71 in1040.0 mb 0.00 in0.0 mm 0.00 in0.0 mm 0.00 in0.0 mm
10:11 PM 52.0°F11.1°C 43.2°F6.2°C 72% 1.6 mph SW2.6 kmh SW 2.2 mph3.5 kmh 30.27 in1025.1 mb 0.00 in0.0 mm 0.00 in0.0 mm 0.00 in0.0 mm
10:15 PM 52.0°F11.1°C 43.2°F6.2°C 72% 2.2 mph SW3.5 kmh SW 4.5 mph7.2 kmh 30.70 in1039.6 mb 0.00 in0.0 mm 0.00 in0.0 mm 0.00 in0.0 mm
10:30 PM 51.8°F11.0°C 43.1°F6.2°C 72% 0.7 mph SW1.1 kmh SW 5.4 mph8.7 kmh 30.69 in1039.3 mb 0.00 in0.0 mm 0.00 in0.0 mm 0.00 in0.0 mm
10:41 PM 51.8°F11.0°C 43.1°F6.2°C 72% 1.6 mph SW2.6 kmh SW 3.1 mph5.0 kmh 30.25 in1024.4 mb 0.00 in0.0 mm 0.00 in0.0 mm 0.00 in0.0 mm
10:45 PM 51.8°F11.0°C 43.1°F6.2°C 72% 0.7 mph SW1.1 kmh SW 3.8 mph6.1 kmh 30.70 in1039.6 mb 0.00 in0.0 mm 0.00 in0.0 mm 0.00 in0.0 mm
11:00 PM 51.6°F10.9°C 43.2°F6.2°C 73% 2.2 mph SW3.5 kmh SW 4.5 mph7.2 kmh 30.70 in1039.6 mb 0.00 in0.0 mm 0.00 in0.0 mm 0.00 in0.0 mm
11:11 PM 51.6°F10.9°C 43.2°F6.2°C 73% 1.6 mph SW2.6 kmh SW 2.2 mph3.5 kmh 30.26 in1024.7 mb 0.00 in0.0 mm 0.00 in0.0 mm 0.00 in0.0 mm
11:15 PM 51.6°F10.9°C 43.2°F6.2°C 73% 1.6 mph SW2.6 kmh SW 3.8 mph6.1 kmh 30.69 in1039.3 mb 0.00 in0.0 mm 0.00 in0.0 mm 0.00 in0.0 mm
11:30 PM 51.6°F10.9°C 43.6°F6.4°C 74% 3.1 mph SSW5.0 kmh SSW 4.5 mph7.2 kmh 30.69 in1039.3 mb 0.00 in0.0 mm 0.00 in0.0 mm 0.00 in0.0 mm
11:41 PM 51.4°F10.8°C 43.4°F6.3°C 74% 3.1 mph S5.0 kmh S 3.8 mph6.1 kmh 30.24 in1024.0 mb 0.00 in0.0 mm 0.00 in0.0 mm 0.00 in0.0 mm
11:45 PM 51.6°F10.9°C 43.6°F6.4°C 74% 5.4 mph SW8.7 kmh SW 8.3 mph13.4 kmh 30.69 in1039.3 mb 0.00 in0.0 mm 0.00 in0.0 mm 0.00 in0.0 mm